createdAt,value
2017-08-27T00:00:33.140Z,14.37
2017-08-27T00:03:00.756Z,16.87
2017-08-27T00:05:28.416Z,17.53
2017-08-27T00:07:56.024Z,14.50
2017-08-27T00:10:23.631Z,14.00
2017-08-27T00:12:51.592Z,14.70
2017-08-27T00:15:19.259Z,14.03
2017-08-27T00:17:46.889Z,14.60
2017-08-27T00:20:14.489Z,14.50
2017-08-27T00:22:42.099Z,14.93
2017-08-27T00:25:09.825Z,15.70
2017-08-27T00:27:37.469Z,12.97
2017-08-27T00:30:05.085Z,11.00
2017-08-27T00:32:32.761Z,9.17
2017-08-27T00:35:00.425Z,10.57
2017-08-27T00:37:28.030Z,9.30
2017-08-27T00:39:55.641Z,11.97
2017-08-27T00:42:23.280Z,14.70
2017-08-27T00:44:50.907Z,14.47
2017-08-27T00:47:18.508Z,15.60
2017-08-27T00:49:46.152Z,14.83
2017-08-27T00:52:13.782Z,10.70
2017-08-27T00:54:41.414Z,11.40
2017-08-27T00:57:09.196Z,11.40
2017-08-27T00:59:36.807Z,13.70
2017-08-27T01:02:04.412Z,12.70
2017-08-27T01:04:32.059Z,12.60
2017-08-27T01:06:59.714Z,11.47
2017-08-27T01:09:27.342Z,10.77
2017-08-27T01:11:55.002Z,11.37
2017-08-27T01:14:22.606Z,11.40
2017-08-27T01:16:50.232Z,10.30
2017-08-27T01:19:17.884Z,11.07
2017-08-27T01:21:45.520Z,10.67
2017-08-27T01:24:13.146Z,11.20
2017-08-27T01:26:40.778Z,13.17
2017-08-27T01:29:08.572Z,13.53
2017-08-27T01:31:36.159Z,10.07
2017-08-27T01:34:03.775Z,10.97
2017-08-27T01:36:31.442Z,10.17
2017-08-27T01:38:59.050Z,10.10
2017-08-27T01:41:26.644Z,9.40
2017-08-27T01:43:54.276Z,10.23
2017-08-27T01:46:21.878Z,12.00
2017-08-27T01:48:49.495Z,13.47
2017-08-27T01:51:17.111Z,8.40
2017-08-27T01:53:44.767Z,13.80
2017-08-27T01:56:12.381Z,12.00
2017-08-27T01:58:39.987Z,15.47
2017-08-27T02:01:08.087Z,10.00
2017-08-27T02:03:36.070Z,9.10
2017-08-27T02:06:04.058Z,10.33
2017-08-27T02:08:31.695Z,9.30
2017-08-27T02:10:59.440Z,11.27
2017-08-27T02:13:27.043Z,10.13
2017-08-27T02:15:54.727Z,10.80
2017-08-27T02:18:22.359Z,9.33
2017-08-27T02:20:49.975Z,10.33
2017-08-27T02:23:17.691Z,8.73
2017-08-27T02:25:45.649Z,12.33
2017-08-27T02:28:13.280Z,10.13
2017-08-27T02:30:41.085Z,10.50
2017-08-27T02:33:08.916Z,8.57
2017-08-27T02:35:36.543Z,9.20
2017-08-27T02:38:04.476Z,7.70
2017-08-27T02:40:32.181Z,7.70
2017-08-27T02:42:59.813Z,8.87
2017-08-27T02:45:27.412Z,8.57
2017-08-27T02:47:55.049Z,7.07
2017-08-27T02:50:22.676Z,9.10
2017-08-27T02:52:50.320Z,7.37
2017-08-27T02:55:17.955Z,9.70
2017-08-27T02:57:45.577Z,10.70
2017-08-27T03:00:13.200Z,10.97
2017-08-27T03:02:40.817Z,9.00
2017-08-27T03:05:08.458Z,10.63
2017-08-27T03:07:36.094Z,11.03
2017-08-27T03:10:03.696Z,8.80
2017-08-27T03:12:31.313Z,7.27
2017-08-27T03:14:58.919Z,9.00
2017-08-27T03:17:26.581Z,7.60
2017-08-27T03:19:54.205Z,9.37
2017-08-27T03:22:22.717Z,8.07
2017-08-27T03:24:50.312Z,9.50
2017-08-27T03:27:17.944Z,7.67
2017-08-27T03:29:45.576Z,8.10
2017-08-27T03:32:13.195Z,7.07
2017-08-27T03:34:40.788Z,8.37
2017-08-27T03:37:08.457Z,8.17
2017-08-27T03:39:36.052Z,7.57
2017-08-27T03:42:03.649Z,7.50
2017-08-27T03:44:31.272Z,5.30
2017-08-27T03:46:58.866Z,8.03
2017-08-27T03:49:26.457Z,7.73
2017-08-27T03:51:54.084Z,6.93
2017-08-27T03:54:21.693Z,7.53
2017-08-27T03:56:49.283Z,6.00
2017-08-27T03:59:16.930Z,6.60
2017-08-27T04:01:44.524Z,5.83
2017-08-27T04:04:12.149Z,6.00
2017-08-27T04:06:39.759Z,7.17
2017-08-27T04:09:07.366Z,5.60
2017-08-27T04:11:34.975Z,5.83
2017-08-27T04:14:02.618Z,5.77
2017-08-27T04:16:30.231Z,7.50
2017-08-27T04:18:57.840Z,5.90
2017-08-27T04:21:25.446Z,6.07
2017-08-27T04:23:53.114Z,6.80
2017-08-27T04:26:20.788Z,6.73
2017-08-27T04:28:48.647Z,5.90
2017-08-27T04:31:16.276Z,4.90
2017-08-27T04:33:43.881Z,6.80
2017-08-27T04:36:11.530Z,5.63
2017-08-27T04:38:39.151Z,5.80
2017-08-27T04:41:06.765Z,6.10
2017-08-27T04:43:34.368Z,6.97
2017-08-27T04:46:02.005Z,6.20
2017-08-27T04:48:29.709Z,6.33
2017-08-27T04:50:57.307Z,8.20
2017-08-27T04:53:24.929Z,7.30
2017-08-27T04:55:52.543Z,8.00
2017-08-27T04:58:20.152Z,6.70
2017-08-27T05:00:47.785Z,7.23
2017-08-27T05:03:15.391Z,6.63
2017-08-27T05:05:43.003Z,6.90
2017-08-27T05:08:10.639Z,6.87
2017-08-27T05:10:38.237Z,7.27
2017-08-27T05:13:05.858Z,7.20
2017-08-27T05:15:33.500Z,6.87
2017-08-27T05:18:01.096Z,5.70
2017-08-27T05:20:28.970Z,6.00
2017-08-27T05:22:57.403Z,5.70
2017-08-27T05:25:25.006Z,5.23
2017-08-27T05:27:52.618Z,5.80
2017-08-27T05:30:20.240Z,7.10
2017-08-27T05:35:21.686Z,6.03
2017-08-27T05:37:49.305Z,6.10
2017-08-27T05:40:16.960Z,6.37
2017-08-27T05:42:44.619Z,6.27
2017-08-27T05:45:12.443Z,6.00
2017-08-27T05:47:40.054Z,6.83
2017-08-27T05:50:07.675Z,7.87
2017-08-27T05:52:35.287Z,8.63
2017-08-27T05:55:02.913Z,6.53
2017-08-27T05:57:30.539Z,6.30
2017-08-27T05:59:58.137Z,5.90
2017-08-27T06:02:25.736Z,6.10
2017-08-27T06:04:53.352Z,7.63
2017-08-27T06:07:20.974Z,6.77
2017-08-27T06:09:48.639Z,7.17
2017-08-27T06:12:16.239Z,6.20
2017-08-27T06:14:43.838Z,6.37
2017-08-27T06:17:11.551Z,6.47
2017-08-27T06:19:39.181Z,7.30
2017-08-27T06:22:06.774Z,9.80
2017-08-27T06:24:34.417Z,8.67
2017-08-27T06:27:02.054Z,9.33
2017-08-27T06:29:29.693Z,13.17
2017-08-27T06:31:57.316Z,9.00
2017-08-27T06:34:24.929Z,8.80
2017-08-27T06:36:52.544Z,7.30
2017-08-27T06:39:23.223Z,6.73
2017-08-27T06:41:50.833Z,6.23
2017-08-27T06:44:18.466Z,6.23
2017-08-27T06:46:46.168Z,5.43
2017-08-27T06:49:13.865Z,6.20
2017-08-27T06:51:41.473Z,6.30
2017-08-27T06:54:09.148Z,5.87
2017-08-27T06:59:10.549Z,5.13
2017-08-27T07:01:38.408Z,5.43
2017-08-27T07:04:06.020Z,5.30
2017-08-27T07:06:33.684Z,5.63
2017-08-27T07:09:01.286Z,4.73
2017-08-27T07:11:29.036Z,4.40
2017-08-27T07:13:56.653Z,4.90
2017-08-27T07:16:24.390Z,4.20
2017-08-27T07:18:52.003Z,4.20
2017-08-27T07:21:19.624Z,4.53
2017-08-27T07:23:47.275Z,5.13
2017-08-27T07:26:14.895Z,4.63
2017-08-27T07:28:42.525Z,3.80
2017-08-27T07:31:10.196Z,4.37
2017-08-27T07:33:37.849Z,4.67
2017-08-27T07:36:05.690Z,4.00
2017-08-27T07:38:33.299Z,4.30
2017-08-27T07:41:00.908Z,4.20
2017-08-27T07:43:28.745Z,3.60
2017-08-27T07:45:56.417Z,4.63
2017-08-27T07:48:24.025Z,3.97
2017-08-27T07:50:51.676Z,4.00
2017-08-27T07:53:19.292Z,3.93
2017-08-27T07:55:46.927Z,3.37
2017-08-27T07:58:14.551Z,4.77
2017-08-27T08:00:42.148Z,4.10
2017-08-27T08:03:09.868Z,5.03
2017-08-27T08:05:37.549Z,4.37
2017-08-27T08:08:05.162Z,3.70
2017-08-27T08:10:32.786Z,5.20
2017-08-27T08:13:00.419Z,4.50
2017-08-27T08:15:28.164Z,4.73
2017-08-27T08:17:55.768Z,5.07
2017-08-27T08:20:23.403Z,4.13
2017-08-27T08:22:51.019Z,5.13
2017-08-27T08:25:18.629Z,4.73
2017-08-27T08:27:46.318Z,4.80
2017-08-27T08:30:13.920Z,4.83
2017-08-27T08:32:41.500Z,5.10
2017-08-27T08:35:09.247Z,5.00
2017-08-27T08:37:36.869Z,5.80
2017-08-27T08:40:04.474Z,4.77
2017-08-27T08:42:32.099Z,4.97
2017-08-27T08:44:59.731Z,4.53
2017-08-27T08:47:27.421Z,5.07
2017-08-27T08:49:55.010Z,5.33
2017-08-27T08:52:22.665Z,5.13
2017-08-27T08:54:50.281Z,4.67
2017-08-27T08:57:17.940Z,6.00
2017-08-27T08:59:45.554Z,5.70
2017-08-27T09:02:13.189Z,5.20
2017-08-27T09:04:40.911Z,6.10
2017-08-27T09:07:08.625Z,5.33
2017-08-27T09:09:36.252Z,5.47
2017-08-27T09:12:03.875Z,5.60
2017-08-27T09:14:31.490Z,5.87
2017-08-27T09:16:59.089Z,6.37
2017-08-27T09:19:26.733Z,5.47
2017-08-27T09:24:27.125Z,6.10
2017-08-27T09:26:54.731Z,6.00
2017-08-27T09:29:22.338Z,4.53
2017-08-27T09:31:49.959Z,6.70
2017-08-27T09:34:17.558Z,6.30
2017-08-27T09:36:45.164Z,6.60
2017-08-27T09:39:12.863Z,6.00
2017-08-27T09:41:40.477Z,5.60
2017-08-27T09:44:08.299Z,5.53
2017-08-27T09:46:35.894Z,5.87
2017-08-27T09:49:03.477Z,6.60
2017-08-27T09:51:31.152Z,6.97
2017-08-27T09:53:58.738Z,6.13
2017-08-27T09:56:26.331Z,4.80
2017-08-27T09:58:53.963Z,6.23
2017-08-27T10:01:21.565Z,6.10
2017-08-27T10:03:49.173Z,6.70
2017-08-27T10:06:16.829Z,6.00
2017-08-27T10:08:44.439Z,5.80
2017-08-27T10:11:12.117Z,5.90
2017-08-27T10:13:39.828Z,5.60
2017-08-27T10:16:07.448Z,6.67
2017-08-27T10:18:36.127Z,5.03
2017-08-27T10:21:03.748Z,5.80
2017-08-27T10:23:31.379Z,6.60
2017-08-27T10:25:59.021Z,5.47
2017-08-27T10:28:26.615Z,5.83
2017-08-27T10:30:56.327Z,6.10
2017-08-27T10:33:24.817Z,5.93
2017-08-27T10:35:52.405Z,6.10
2017-08-27T10:38:19.977Z,6.60
2017-08-27T10:40:48.310Z,5.80
2017-08-27T10:43:15.895Z,6.97
2017-08-27T10:45:46.518Z,6.50
2017-08-27T10:48:14.703Z,6.83
2017-08-27T10:50:42.312Z,6.53
2017-08-27T10:53:10.065Z,6.77
2017-08-27T10:55:38.012Z,5.73
2017-08-27T10:58:05.660Z,6.27
2017-08-27T11:00:33.510Z,6.30
2017-08-27T11:03:01.164Z,5.40
2017-08-27T11:05:28.836Z,7.03
2017-08-27T11:07:59.836Z,6.10
2017-08-27T11:10:27.778Z,6.93
2017-08-27T11:12:55.632Z,6.77
2017-08-27T11:15:23.597Z,6.77
2017-08-27T11:17:51.232Z,6.20
2017-08-27T11:20:18.864Z,6.50
2017-08-27T11:22:47.200Z,6.07
2017-08-27T11:25:14.914Z,5.47
2017-08-27T11:27:42.535Z,5.77
2017-08-27T11:30:10.244Z,5.10
2017-08-27T11:32:38.139Z,6.30
2017-08-27T11:35:05.874Z,6.40
2017-08-27T11:37:33.506Z,6.10
2017-08-27T11:40:01.091Z,6.90
2017-08-27T11:42:28.748Z,6.40
2017-08-27T11:44:56.392Z,6.73
2017-08-27T11:47:24.076Z,6.10
2017-08-27T11:49:51.712Z,6.03
2017-08-27T11:52:19.343Z,5.40
2017-08-27T11:54:46.968Z,5.93
2017-08-27T11:57:14.581Z,5.50
2017-08-27T11:59:42.203Z,6.43
2017-08-27T12:02:09.880Z,5.47
2017-08-27T12:04:37.540Z,5.63
2017-08-27T12:07:06.844Z,6.07
2017-08-27T12:09:34.479Z,6.37
2017-08-27T12:12:02.546Z,5.80
2017-08-27T12:14:30.270Z,6.70
2017-08-27T12:16:58.933Z,6.10
2017-08-27T12:19:26.677Z,4.90
2017-08-27T12:21:54.313Z,6.63
2017-08-27T12:24:22.638Z,6.40
2017-08-27T12:26:50.260Z,5.93
2017-08-27T12:29:17.882Z,5.73
2017-08-27T12:31:47.186Z,6.03
2017-08-27T12:34:14.968Z,6.27
2017-08-27T12:36:42.634Z,6.27
2017-08-27T12:39:10.514Z,5.33
2017-08-27T12:41:38.259Z,6.30
2017-08-27T12:44:05.921Z,6.60
2017-08-27T12:46:33.530Z,6.70
2017-08-27T12:49:01.156Z,5.90
2017-08-27T12:51:28.841Z,6.30
2017-08-27T12:53:56.475Z,6.03
2017-08-27T12:56:24.084Z,5.80
2017-08-27T12:58:51.717Z,6.27
2017-08-27T13:01:19.366Z,6.17
2017-08-27T13:03:47.452Z,7.30
2017-08-27T13:06:15.336Z,7.27
2017-08-27T13:08:42.972Z,6.87
2017-08-27T13:11:10.612Z,5.53
2017-08-27T13:13:38.242Z,5.97
2017-08-27T13:16:05.872Z,7.13
2017-08-27T13:18:33.505Z,6.07
2017-08-27T13:21:04.943Z,6.23
2017-08-27T13:23:32.775Z,6.47
2017-08-27T13:26:00.416Z,6.60
2017-08-27T13:28:30.778Z,6.00
2017-08-27T13:30:58.456Z,6.50
2017-08-27T13:33:26.214Z,7.03
2017-08-27T13:35:54.061Z,6.37
2017-08-27T13:38:22.521Z,5.50
2017-08-27T13:40:50.205Z,5.20
2017-08-27T13:43:17.978Z,5.73
2017-08-27T13:45:45.619Z,5.93
2017-08-27T13:48:13.267Z,6.23
2017-08-27T13:50:40.910Z,6.80
2017-08-27T13:53:08.641Z,4.90
2017-08-27T13:55:36.277Z,5.27
2017-08-27T13:58:03.929Z,6.17
2017-08-27T14:00:31.639Z,5.60
2017-08-27T14:02:59.896Z,6.57
2017-08-27T14:05:28.852Z,6.37
2017-08-27T14:07:56.586Z,6.57
2017-08-27T14:10:24.272Z,5.37
2017-08-27T14:12:52.330Z,6.40
2017-08-27T14:15:21.758Z,5.40
2017-08-27T14:17:49.368Z,6.10
2017-08-27T14:20:17.141Z,5.43
2017-08-27T14:22:44.776Z,5.30
2017-08-27T14:25:12.579Z,5.57
2017-08-27T14:27:44.501Z,5.70
2017-08-27T14:30:26.436Z,5.50
2017-08-27T14:33:20.671Z,5.80
2017-08-27T14:35:50.285Z,5.43
2017-08-27T14:38:18.771Z,5.70
2017-08-27T14:40:47.819Z,5.23
2017-08-27T14:43:15.610Z,6.23
2017-08-27T14:45:43.295Z,6.70
2017-08-27T14:48:12.921Z,6.40
2017-08-27T14:50:40.549Z,6.43
2017-08-27T14:53:11.607Z,5.80
2017-08-27T14:55:40.339Z,4.90
2017-08-27T15:03:32.843Z,6.20
2017-08-27T15:06:00.450Z,5.77
2017-08-27T15:08:28.354Z,5.67
2017-08-27T15:10:56.681Z,5.13
2017-08-27T15:13:24.457Z,5.47
2017-08-27T15:15:55.456Z,6.13
2017-08-27T15:18:23.522Z,5.70
2017-08-27T15:20:52.960Z,6.73
2017-08-27T15:23:26.575Z,6.00
2017-08-27T15:26:07.807Z,6.57
2017-08-27T15:28:36.388Z,6.13
2017-08-27T15:31:04.055Z,8.50
2017-08-27T15:33:31.891Z,7.47
2017-08-27T15:36:01.484Z,8.57
2017-08-27T15:38:29.172Z,6.30
2017-08-27T15:40:57.321Z,6.50
2017-08-27T15:43:25.044Z,6.60
2017-08-27T15:45:52.746Z,6.67
2017-08-27T15:48:22.975Z,7.53
2017-08-27T15:50:50.932Z,6.80
2017-08-27T15:56:19.682Z,7.43
2017-08-27T15:58:48.262Z,8.43
2017-08-27T16:04:06.577Z,6.37
2017-08-27T16:06:34.365Z,7.47
2017-08-27T16:09:07.827Z,7.30
2017-08-27T16:11:35.580Z,8.37
2017-08-27T16:14:03.445Z,6.93
2017-08-27T16:16:31.067Z,8.90
2017-08-27T16:18:58.744Z,7.53
2017-08-27T16:21:26.496Z,8.20
2017-08-27T16:23:54.142Z,7.30
2017-08-27T16:26:22.912Z,6.73
2017-08-27T16:28:50.644Z,7.07
2017-08-27T16:31:18.398Z,7.40
2017-08-27T16:33:46.635Z,7.70
2017-08-27T16:36:14.374Z,6.10
2017-08-27T16:38:42.150Z,6.77
2017-08-27T16:41:10.073Z,7.03
2017-08-27T16:43:37.800Z,7.13
2017-08-27T16:46:05.460Z,6.90
2017-08-27T16:48:33.138Z,6.70
2017-08-27T16:51:00.810Z,6.87
2017-08-27T16:53:30.232Z,6.50
2017-08-27T16:55:57.949Z,7.63
2017-08-27T16:58:25.579Z,6.80
2017-08-27T17:00:54.227Z,6.30
2017-08-27T17:03:21.901Z,7.20
2017-08-27T17:05:49.580Z,7.60
2017-08-27T17:08:17.260Z,7.00
2017-08-27T17:10:44.953Z,7.40
2017-08-27T17:13:13.136Z,7.63
2017-08-27T17:15:40.752Z,6.33
2017-08-27T17:18:08.407Z,7.30
2017-08-27T17:20:36.953Z,7.07
2017-08-27T17:23:04.671Z,6.90
2017-08-27T17:25:32.711Z,7.43
2017-08-27T17:28:00.355Z,8.10
2017-08-27T17:30:34.171Z,7.90
2017-08-27T17:33:01.883Z,7.70
2017-08-27T17:35:29.870Z,9.23
2017-08-27T17:37:57.656Z,9.00
2017-08-27T17:40:25.343Z,7.40
2017-08-27T17:42:53.009Z,10.63
2017-08-27T17:45:21.470Z,10.87
2017-08-27T17:47:49.134Z,13.20
2017-08-27T17:50:17.853Z,8.73
2017-08-27T17:52:45.567Z,7.80
2017-08-27T17:55:13.459Z,8.23
2017-08-27T17:57:41.095Z,8.60
2017-08-27T18:00:08.775Z,9.17
2017-08-27T18:02:38.684Z,7.80
2017-08-27T18:05:06.556Z,8.60
2017-08-27T18:07:34.192Z,9.10
2017-08-27T18:10:01.820Z,9.77
2017-08-27T18:12:29.433Z,8.60
2017-08-27T18:14:57.925Z,10.10
2017-08-27T18:17:25.716Z,8.00
2017-08-27T18:19:54.172Z,9.23
2017-08-27T18:22:22.110Z,9.40
2017-08-27T18:24:51.185Z,8.20
2017-08-27T18:27:18.904Z,8.83
2017-08-27T18:29:46.590Z,9.43
2017-08-27T18:32:14.337Z,9.70
2017-08-27T18:34:41.980Z,8.40
2017-08-27T18:37:09.982Z,8.87
2017-08-27T18:39:42.148Z,9.77
2017-08-27T18:42:10.981Z,8.77
2017-08-27T18:44:40.142Z,8.63
2017-08-27T18:47:07.785Z,8.53
2017-08-27T18:49:35.425Z,8.27
2017-08-27T18:52:03.183Z,8.50
2017-08-27T18:54:30.945Z,8.80
2017-08-27T18:56:59.549Z,8.70
2017-08-27T18:59:27.229Z,10.00
2017-08-27T19:01:54.885Z,10.03
2017-08-27T19:04:22.494Z,9.70
2017-08-27T19:06:52.288Z,10.53
2017-08-27T19:09:20.103Z,11.57
2017-08-27T19:11:47.744Z,11.50
2017-08-27T19:14:15.509Z,11.00
2017-08-27T19:16:43.154Z,10.43
2017-08-27T19:19:10.817Z,8.60
2017-08-27T19:21:38.520Z,9.87
2017-08-27T19:24:06.629Z,8.83
2017-08-27T19:26:34.473Z,9.20
2017-08-27T19:29:02.752Z,9.57
2017-08-27T19:31:30.505Z,9.50
2017-08-27T19:33:58.123Z,9.60
2017-08-27T19:36:25.721Z,10.63
2017-08-27T19:38:53.418Z,10.03
2017-08-27T19:41:21.124Z,8.97
2017-08-27T19:43:48.744Z,9.93
2017-08-27T19:46:16.415Z,9.90
2017-08-27T19:48:44.064Z,10.17
2017-08-27T19:51:11.957Z,9.90
2017-08-27T19:53:39.583Z,11.50
2017-08-27T19:56:07.288Z,12.27
2017-08-27T19:58:34.907Z,15.13
2017-08-27T20:01:02.834Z,19.30
2017-08-27T20:03:30.767Z,17.00
2017-08-27T20:05:58.434Z,12.17
2017-08-27T20:08:26.354Z,12.00
2017-08-27T20:10:54.411Z,8.57
2017-08-27T20:15:57.536Z,10.40
2017-08-27T20:18:26.611Z,9.73
2017-08-27T20:20:54.707Z,10.50
2017-08-27T20:23:22.693Z,10.27
2017-08-27T20:25:51.254Z,10.30
2017-08-27T20:28:19.529Z,10.60
2017-08-27T20:30:47.283Z,11.57
2017-08-27T20:33:14.940Z,11.20
2017-08-27T20:35:42.655Z,11.80
2017-08-27T20:38:10.511Z,11.57
2017-08-27T20:40:38.214Z,10.50
2017-08-27T20:43:05.913Z,10.27
2017-08-27T20:45:33.847Z,10.20
2017-08-27T20:48:01.532Z,10.10
2017-08-27T20:50:29.815Z,9.30
2017-08-27T20:52:57.532Z,9.10
2017-08-27T20:55:25.516Z,9.20
2017-08-27T20:57:53.161Z,10.67
2017-08-27T21:00:20.822Z,10.80
2017-08-27T21:02:48.529Z,11.23
2017-08-27T21:05:16.743Z,10.40
2017-08-27T21:07:44.391Z,10.60
2017-08-27T21:10:12.042Z,10.50
2017-08-27T21:12:39.773Z,11.23
2017-08-27T21:15:07.846Z,11.23
2017-08-27T21:17:35.904Z,11.20
2017-08-27T21:20:04.597Z,9.93
2017-08-27T21:22:32.260Z,10.30
2017-08-27T21:25:00.304Z,9.77
2017-08-27T21:27:30.295Z,9.83
2017-08-27T21:29:58.228Z,10.43
2017-08-27T21:32:27.667Z,11.50
2017-08-27T21:34:55.488Z,12.73
2017-08-27T21:37:23.520Z,10.50
2017-08-27T21:39:51.209Z,10.33
2017-08-27T21:42:18.949Z,9.53
2017-08-27T21:44:46.646Z,9.87
2017-08-27T21:47:15.528Z,10.20
2017-08-27T21:49:43.463Z,10.67
2017-08-27T21:52:11.180Z,11.20
2017-08-27T21:54:40.060Z,11.00
2017-08-27T21:57:08.285Z,11.33
2017-08-27T21:59:35.989Z,10.77
2017-08-27T22:02:07.192Z,10.27
2017-08-27T22:04:34.935Z,11.50
2017-08-27T22:07:02.680Z,10.77
2017-08-27T22:09:30.446Z,10.33
2017-08-27T22:11:58.137Z,11.10
2017-08-27T22:14:25.771Z,10.77
2017-08-27T22:16:53.413Z,10.93
2017-08-27T22:19:21.094Z,11.50
2017-08-27T22:21:48.700Z,11.73
2017-08-27T22:24:16.367Z,11.30
2017-08-27T22:26:44.056Z,10.83
2017-08-27T22:29:11.718Z,10.90
2017-08-27T22:31:47.574Z,11.20
2017-08-27T22:34:16.946Z,10.17
2017-08-27T22:36:44.639Z,11.30
2017-08-27T22:39:12.463Z,11.57
2017-08-27T22:41:48.286Z,10.87
2017-08-27T22:44:16.669Z,9.53
2017-08-27T22:46:44.288Z,10.60
2017-08-27T22:49:12.141Z,11.53
2017-08-27T22:51:39.816Z,10.07
2017-08-27T22:54:07.472Z,11.40
2017-08-27T22:56:35.121Z,10.50
2017-08-27T22:59:03.804Z,10.77
2017-08-27T23:01:31.474Z,10.23
2017-08-27T23:03:59.105Z,11.23
2017-08-27T23:06:26.788Z,12.00
2017-08-27T23:08:54.691Z,10.97
2017-08-27T23:11:22.346Z,9.90
2017-08-27T23:13:50.011Z,11.07
2017-08-27T23:16:17.665Z,11.00
2017-08-27T23:18:45.309Z,12.23
2017-08-27T23:21:13.023Z,10.30
2017-08-27T23:23:40.653Z,10.07
2017-08-27T23:26:08.316Z,10.43
2017-08-27T23:28:36.003Z,9.20
2017-08-27T23:31:03.694Z,11.63
2017-08-27T23:33:31.352Z,12.17
2017-08-27T23:35:59.075Z,13.13
2017-08-27T23:38:26.699Z,12.40
2017-08-27T23:40:54.339Z,10.50
2017-08-27T23:43:22.003Z,11.60
2017-08-27T23:45:49.647Z,12.40
2017-08-27T23:48:17.309Z,12.00
2017-08-27T23:50:44.942Z,11.20
2017-08-27T23:53:12.614Z,11.23
2017-08-27T23:55:40.258Z,10.50
2017-08-27T23:58:07.978Z,11.23
